sensor_id;sensor_type;location;lat;lon;timestamp;P1;durP1;ratioP1;P2;durP2;ratioP2
12921;SDS011;6528;48.086;16.282;2023-11-19T00:00:21;3.00;;;2.80;;
12921;SDS011;6528;48.086;16.282;2023-11-19T00:02:50;3.20;;;3.00;;
12921;SDS011;6528;48.086;16.282;2023-11-19T00:05:17;3.20;;;3.00;;
12921;SDS011;6528;48.086;16.282;2023-11-19T00:07:45;3.20;;;2.90;;
12921;SDS011;6528;48.086;16.282;2023-11-19T00:10:13;3.37;;;3.07;;
12921;SDS011;6528;48.086;16.282;2023-11-19T00:12:46;2.60;;;2.40;;
12921;SDS011;6528;48.086;16.282;2023-11-19T00:15:15;2.80;;;2.60;;
12921;SDS011;6528;48.086;16.282;2023-11-19T00:17:46;3.00;;;2.80;;
12921;SDS011;6528;48.086;16.282;2023-11-19T00:20:16;2.60;;;2.40;;
12921;SDS011;6528;48.086;16.282;2023-11-19T00:22:46;2.90;;;2.70;;
12921;SDS011;6528;48.086;16.282;2023-11-19T00:25:19;2.90;;;2.70;;
12921;SDS011;6528;48.086;16.282;2023-11-19T00:27:50;2.80;;;2.60;;
12921;SDS011;6528;48.086;16.282;2023-11-19T00:30:20;3.10;;;2.90;;
12921;SDS011;6528;48.086;16.282;2023-11-19T00:32:47;3.07;;;2.87;;
12921;SDS011;6528;48.086;16.282;2023-11-19T00:35:15;2.90;;;2.70;;
12921;SDS011;6528;48.086;16.282;2023-11-19T00:37:42;3.27;;;3.07;;
12921;SDS011;6528;48.086;16.282;2023-11-19T00:40:12;2.60;;;2.40;;
12921;SDS011;6528;48.086;16.282;2023-11-19T00:42:43;2.60;;;2.40;;
12921;SDS011;6528;48.086;16.282;2023-11-19T00:45:10;2.83;;;2.63;;
12921;SDS011;6528;48.086;16.282;2023-11-19T00:47:40;2.97;;;2.43;;
12921;SDS011;6528;48.086;16.282;2023-11-19T00:50:07;2.40;;;2.30;;
12921;SDS011;6528;48.086;16.282;2023-11-19T00:52:40;2.10;;;1.90;;
12921;SDS011;6528;48.086;16.282;2023-11-19T00:55:07;2.83;;;2.63;;
12921;SDS011;6528;48.086;16.282;2023-11-19T00:57:35;2.50;;;2.30;;
12921;SDS011;6528;48.086;16.282;2023-11-19T01:00:03;2.73;;;2.30;;
12921;SDS011;6528;48.086;16.282;2023-11-19T01:02:39;2.53;;;2.33;;
12921;SDS011;6528;48.086;16.282;2023-11-19T01:05:08;2.60;;;2.33;;
12921;SDS011;6528;48.086;16.282;2023-11-19T01:07:36;2.40;;;2.30;;
12921;SDS011;6528;48.086;16.282;2023-11-19T01:10:03;2.30;;;2.20;;
12921;SDS011;6528;48.086;16.282;2023-11-19T01:12:31;2.50;;;2.30;;
12921;SDS011;6528;48.086;16.282;2023-11-19T01:14:59;2.80;;;2.57;;
12921;SDS011;6528;48.086;16.282;2023-11-19T01:17:27;2.33;;;2.20;;
12921;SDS011;6528;48.086;16.282;2023-11-19T01:19:54;2.97;;;2.67;;
12921;SDS011;6528;48.086;16.282;2023-11-19T01:22:22;2.13;;;2.03;;
12921;SDS011;6528;48.086;16.282;2023-11-19T01:24:49;2.03;;;1.93;;
12921;SDS011;6528;48.086;16.282;2023-11-19T01:27:18;2.67;;;2.10;;
12921;SDS011;6528;48.086;16.282;2023-11-19T01:29:46;2.63;;;2.43;;
12921;SDS011;6528;48.086;16.282;2023-11-19T01:32:13;2.13;;;1.93;;
12921;SDS011;6528;48.086;16.282;2023-11-19T01:34:40;1.97;;;1.87;;
12921;SDS011;6528;48.086;16.282;2023-11-19T01:37:08;2.37;;;2.27;;
12921;SDS011;6528;48.086;16.282;2023-11-19T01:39:39;2.30;;;2.20;;
12921;SDS011;6528;48.086;16.282;2023-11-19T01:42:06;2.30;;;2.20;;
12921;SDS011;6528;48.086;16.282;2023-11-19T01:44:34;2.60;;;2.50;;
12921;SDS011;6528;48.086;16.282;2023-11-19T01:47:01;2.97;;;2.10;;
12921;SDS011;6528;48.086;16.282;2023-11-19T01:49:30;2.30;;;2.20;;
12921;SDS011;6528;48.086;16.282;2023-11-19T01:51:59;2.00;;;1.87;;
12921;SDS011;6528;48.086;16.282;2023-11-19T01:54:27;2.07;;;1.97;;
12921;SDS011;6528;48.086;16.282;2023-11-19T01:56:55;2.17;;;1.97;;
12921;SDS011;6528;48.086;16.282;2023-11-19T01:59:24;1.80;;;1.70;;
12921;SDS011;6528;48.086;16.282;2023-11-19T02:01:54;2.07;;;1.97;;
12921;SDS011;6528;48.086;16.282;2023-11-19T02:04:25;2.40;;;2.20;;
12921;SDS011;6528;48.086;16.282;2023-11-19T02:06:54;1.83;;;1.73;;
12921;SDS011;6528;48.086;16.282;2023-11-19T02:09:24;1.77;;;1.67;;
12921;SDS011;6528;48.086;16.282;2023-11-19T02:11:53;2.50;;;2.30;;
12921;SDS011;6528;48.086;16.282;2023-11-19T02:14:22;2.27;;;2.07;;
12921;SDS011;6528;48.086;16.282;2023-11-19T02:16:52;2.37;;;2.17;;
12921;SDS011;6528;48.086;16.282;2023-11-19T02:19:20;2.03;;;1.93;;
12921;SDS011;6528;48.086;16.282;2023-11-19T02:21:48;1.93;;;1.83;;
12921;SDS011;6528;48.086;16.282;2023-11-19T02:24:16;2.00;;;1.90;;
12921;SDS011;6528;48.086;16.282;2023-11-19T02:26:49;2.13;;;2.03;;
12921;SDS011;6528;48.086;16.282;2023-11-19T02:29:18;1.83;;;1.73;;
12921;SDS011;6528;48.086;16.282;2023-11-19T02:31:46;2.10;;;1.93;;
12921;SDS011;6528;48.086;16.282;2023-11-19T02:34:13;1.60;;;1.47;;
12921;SDS011;6528;48.086;16.282;2023-11-19T02:36:41;2.10;;;2.00;;
12921;SDS011;6528;48.086;16.282;2023-11-19T02:39:08;1.87;;;1.77;;
12921;SDS011;6528;48.086;16.282;2023-11-19T02:41:39;1.73;;;1.63;;
12921;SDS011;6528;48.086;16.282;2023-11-19T02:44:06;2.17;;;1.87;;
12921;SDS011;6528;48.086;16.282;2023-11-19T02:46:34;1.70;;;1.60;;
12921;SDS011;6528;48.086;16.282;2023-11-19T02:49:02;2.00;;;1.90;;
12921;SDS011;6528;48.086;16.282;2023-11-19T02:51:29;2.10;;;1.60;;
12921;SDS011;6528;48.086;16.282;2023-11-19T02:53:57;1.60;;;1.50;;
12921;SDS011;6528;48.086;16.282;2023-11-19T02:56:24;2.10;;;1.87;;
12921;SDS011;6528;48.086;16.282;2023-11-19T02:58:52;1.50;;;1.40;;
12921;SDS011;6528;48.086;16.282;2023-11-19T03:01:24;1.50;;;1.40;;
12921;SDS011;6528;48.086;16.282;2023-11-19T03:03:58;1.23;;;1.23;;
12921;SDS011;6528;48.086;16.282;2023-11-19T03:06:29;1.67;;;1.57;;
12921;SDS011;6528;48.086;16.282;2023-11-19T03:08:56;1.60;;;1.50;;
12921;SDS011;6528;48.086;16.282;2023-11-19T03:11:23;1.80;;;1.70;;
12921;SDS011;6528;48.086;16.282;2023-11-19T03:13:51;1.70;;;1.60;;
12921;SDS011;6528;48.086;16.282;2023-11-19T03:16:18;1.60;;;1.50;;
12921;SDS011;6528;48.086;16.282;2023-11-19T03:18:45;1.50;;;1.40;;
12921;SDS011;6528;48.086;16.282;2023-11-19T03:21:13;1.40;;;1.30;;
12921;SDS011;6528;48.086;16.282;2023-11-19T03:23:40;1.70;;;1.60;;
12921;SDS011;6528;48.086;16.282;2023-11-19T03:26:07;1.70;;;1.60;;
12921;SDS011;6528;48.086;16.282;2023-11-19T03:28:37;1.60;;;1.50;;
12921;SDS011;6528;48.086;16.282;2023-11-19T03:31:04;1.60;;;1.50;;
12921;SDS011;6528;48.086;16.282;2023-11-19T03:33:35;1.60;;;1.50;;
12921;SDS011;6528;48.086;16.282;2023-11-19T03:36:04;1.30;;;1.20;;
12921;SDS011;6528;48.086;16.282;2023-11-19T03:38:33;1.30;;;1.20;;
12921;SDS011;6528;48.086;16.282;2023-11-19T03:41:01;1.60;;;1.50;;
12921;SDS011;6528;48.086;16.282;2023-11-19T03:43:36;1.70;;;1.60;;
12921;SDS011;6528;48.086;16.282;2023-11-19T03:46:03;1.43;;;1.33;;
12921;SDS011;6528;48.086;16.282;2023-11-19T03:48:32;1.70;;;1.60;;
12921;SDS011;6528;48.086;16.282;2023-11-19T03:50:59;1.83;;;1.73;;
12921;SDS011;6528;48.086;16.282;2023-11-19T03:53:26;1.23;;;1.23;;
12921;SDS011;6528;48.086;16.282;2023-11-19T03:55:54;1.23;;;1.23;;
12921;SDS011;6528;48.086;16.282;2023-11-19T03:58:21;1.20;;;1.20;;
12921;SDS011;6528;48.086;16.282;2023-11-19T04:00:48;1.73;;;1.63;;
12921;SDS011;6528;48.086;16.282;2023-11-19T04:03:16;1.50;;;1.40;;
12921;SDS011;6528;48.086;16.282;2023-11-19T04:05:43;1.13;;;1.13;;
12921;SDS011;6528;48.086;16.282;2023-11-19T04:08:10;1.40;;;1.30;;
12921;SDS011;6528;48.086;16.282;2023-11-19T04:10:37;1.43;;;1.33;;
12921;SDS011;6528;48.086;16.282;2023-11-19T04:13:05;1.27;;;1.27;;
12921;SDS011;6528;48.086;16.282;2023-11-19T04:15:32;1.40;;;1.30;;
12921;SDS011;6528;48.086;16.282;2023-11-19T04:18:00;1.00;;;1.00;;
12921;SDS011;6528;48.086;16.282;2023-11-19T04:20:27;1.60;;;1.50;;
12921;SDS011;6528;48.086;16.282;2023-11-19T04:22:54;1.37;;;1.27;;
12921;SDS011;6528;48.086;16.282;2023-11-19T04:25:23;1.60;;;1.50;;
12921;SDS011;6528;48.086;16.282;2023-11-19T04:27:52;1.50;;;1.40;;
12921;SDS011;6528;48.086;16.282;2023-11-19T04:30:20;1.30;;;1.20;;
12921;SDS011;6528;48.086;16.282;2023-11-19T04:32:48;1.33;;;1.30;;
12921;SDS011;6528;48.086;16.282;2023-11-19T04:35:16;1.57;;;1.47;;
12921;SDS011;6528;48.086;16.282;2023-11-19T04:37:43;1.53;;;1.40;;
12921;SDS011;6528;48.086;16.282;2023-11-19T04:40:11;1.50;;;1.40;;
12921;SDS011;6528;48.086;16.282;2023-11-19T04:42:39;1.27;;;1.27;;
12921;SDS011;6528;48.086;16.282;2023-11-19T04:45:09;1.53;;;1.43;;
12921;SDS011;6528;48.086;16.282;2023-11-19T04:47:37;1.60;;;1.50;;
12921;SDS011;6528;48.086;16.282;2023-11-19T04:50:05;1.27;;;1.17;;
12921;SDS011;6528;48.086;16.282;2023-11-19T04:52:32;1.60;;;1.50;;
12921;SDS011;6528;48.086;16.282;2023-11-19T04:55:00;1.30;;;1.20;;
12921;SDS011;6528;48.086;16.282;2023-11-19T04:57:27;1.37;;;1.27;;
12921;SDS011;6528;48.086;16.282;2023-11-19T04:59:54;1.47;;;1.37;;
12921;SDS011;6528;48.086;16.282;2023-11-19T05:02:21;1.40;;;1.30;;
12921;SDS011;6528;48.086;16.282;2023-11-19T05:04:48;1.23;;;1.20;;
12921;SDS011;6528;48.086;16.282;2023-11-19T05:07:16;1.20;;;1.17;;
12921;SDS011;6528;48.086;16.282;2023-11-19T05:09:43;1.53;;;1.43;;
12921;SDS011;6528;48.086;16.282;2023-11-19T05:12:11;1.50;;;1.40;;
12921;SDS011;6528;48.086;16.282;2023-11-19T05:14:39;1.07;;;1.07;;
12921;SDS011;6528;48.086;16.282;2023-11-19T05:17:06;1.50;;;1.40;;
12921;SDS011;6528;48.086;16.282;2023-11-19T05:19:34;1.30;;;1.20;;
12921;SDS011;6528;48.086;16.282;2023-11-19T05:22:02;1.60;;;1.50;;
12921;SDS011;6528;48.086;16.282;2023-11-19T05:24:31;1.20;;;1.20;;
12921;SDS011;6528;48.086;16.282;2023-11-19T05:26:58;1.33;;;1.23;;
12921;SDS011;6528;48.086;16.282;2023-11-19T05:29:26;1.50;;;1.40;;
12921;SDS011;6528;48.086;16.282;2023-11-19T05:31:53;1.30;;;1.30;;
12921;SDS011;6528;48.086;16.282;2023-11-19T05:34:21;1.30;;;1.30;;
12921;SDS011;6528;48.086;16.282;2023-11-19T05:36:49;1.50;;;1.40;;
12921;SDS011;6528;48.086;16.282;2023-11-19T05:39:17;1.43;;;1.33;;
12921;SDS011;6528;48.086;16.282;2023-11-19T05:41:47;1.70;;;1.60;;
12921;SDS011;6528;48.086;16.282;2023-11-19T05:44:14;1.33;;;1.23;;
12921;SDS011;6528;48.086;16.282;2023-11-19T05:46:42;1.50;;;1.40;;
12921;SDS011;6528;48.086;16.282;2023-11-19T05:49:11;1.70;;;1.60;;
12921;SDS011;6528;48.086;16.282;2023-11-19T05:51:40;1.50;;;1.40;;
12921;SDS011;6528;48.086;16.282;2023-11-19T05:54:08;1.40;;;1.30;;
12921;SDS011;6528;48.086;16.282;2023-11-19T05:56:36;1.17;;;1.10;;
12921;SDS011;6528;48.086;16.282;2023-11-19T05:59:04;1.60;;;1.50;;
12921;SDS011;6528;48.086;16.282;2023-11-19T06:01:35;1.33;;;1.30;;
12921;SDS011;6528;48.086;16.282;2023-11-19T06:04:03;1.00;;;1.00;;
12921;SDS011;6528;48.086;16.282;2023-11-19T06:06:31;1.03;;;1.03;;
12921;SDS011;6528;48.086;16.282;2023-11-19T06:08:58;1.20;;;1.17;;
12921;SDS011;6528;48.086;16.282;2023-11-19T06:11:38;1.23;;;1.20;;
12921;SDS011;6528;48.086;16.282;2023-11-19T06:14:06;1.40;;;1.30;;
12921;SDS011;6528;48.086;16.282;2023-11-19T06:16:34;1.40;;;1.30;;
12921;SDS011;6528;48.086;16.282;2023-11-19T06:19:03;1.10;;;1.10;;
12921;SDS011;6528;48.086;16.282;2023-11-19T06:21:31;1.60;;;1.50;;
12921;SDS011;6528;48.086;16.282;2023-11-19T06:23:58;1.33;;;1.33;;
12921;SDS011;6528;48.086;16.282;2023-11-19T06:26:26;1.47;;;1.37;;
12921;SDS011;6528;48.086;16.282;2023-11-19T06:28:54;1.10;;;1.10;;
12921;SDS011;6528;48.086;16.282;2023-11-19T06:31:21;1.30;;;1.20;;
12921;SDS011;6528;48.086;16.282;2023-11-19T06:33:49;1.20;;;1.20;;
12921;SDS011;6528;48.086;16.282;2023-11-19T06:36:16;1.57;;;1.47;;
12921;SDS011;6528;48.086;16.282;2023-11-19T06:38:44;1.40;;;1.40;;
12921;SDS011;6528;48.086;16.282;2023-11-19T06:41:11;1.30;;;1.20;;
12921;SDS011;6528;48.086;16.282;2023-11-19T06:43:38;1.50;;;1.43;;
12921;SDS011;6528;48.086;16.282;2023-11-19T06:46:14;1.73;;;1.63;;
12921;SDS011;6528;48.086;16.282;2023-11-19T06:48:45;1.73;;;1.63;;
12921;SDS011;6528;48.086;16.282;2023-11-19T06:51:13;1.63;;;1.53;;
12921;SDS011;6528;48.086;16.282;2023-11-19T06:53:42;1.60;;;1.50;;
12921;SDS011;6528;48.086;16.282;2023-11-19T06:56:20;1.60;;;1.50;;
12921;SDS011;6528;48.086;16.282;2023-11-19T06:58:50;1.50;;;1.30;;
12921;SDS011;6528;48.086;16.282;2023-11-19T07:01:18;1.70;;;1.60;;
12921;SDS011;6528;48.086;16.282;2023-11-19T07:03:46;1.40;;;1.33;;
12921;SDS011;6528;48.086;16.282;2023-11-19T07:06:15;1.50;;;1.40;;
12921;SDS011;6528;48.086;16.282;2023-11-19T07:08:42;1.50;;;1.40;;
12921;SDS011;6528;48.086;16.282;2023-11-19T07:11:13;1.47;;;1.37;;
12921;SDS011;6528;48.086;16.282;2023-11-19T07:13:43;1.67;;;1.57;;
12921;SDS011;6528;48.086;16.282;2023-11-19T07:16:14;1.73;;;1.63;;
12921;SDS011;6528;48.086;16.282;2023-11-19T07:18:41;1.60;;;1.50;;
12921;SDS011;6528;48.086;16.282;2023-11-19T07:21:10;1.50;;;1.40;;
12921;SDS011;6528;48.086;16.282;2023-11-19T07:23:38;1.60;;;1.50;;
12921;SDS011;6528;48.086;16.282;2023-11-19T07:26:05;1.90;;;1.80;;
12921;SDS011;6528;48.086;16.282;2023-11-19T07:28:36;1.63;;;1.53;;
12921;SDS011;6528;48.086;16.282;2023-11-19T07:31:03;1.97;;;1.87;;
12921;SDS011;6528;48.086;16.282;2023-11-19T07:33:31;1.37;;;1.37;;
12921;SDS011;6528;48.086;16.282;2023-11-19T07:35:58;1.77;;;1.67;;
12921;SDS011;6528;48.086;16.282;2023-11-19T07:38:26;1.60;;;1.50;;
12921;SDS011;6528;48.086;16.282;2023-11-19T07:40:53;1.53;;;1.43;;
12921;SDS011;6528;48.086;16.282;2023-11-19T07:43:23;1.60;;;1.50;;
12921;SDS011;6528;48.086;16.282;2023-11-19T07:45:50;2.03;;;1.93;;
12921;SDS011;6528;48.086;16.282;2023-11-19T07:48:18;1.90;;;1.80;;
12921;SDS011;6528;48.086;16.282;2023-11-19T07:50:49;1.90;;;1.80;;
12921;SDS011;6528;48.086;16.282;2023-11-19T07:53:17;3.57;;;1.70;;
12921;SDS011;6528;48.086;16.282;2023-11-19T07:55:44;3.80;;;2.20;;
12921;SDS011;6528;48.086;16.282;2023-11-19T07:58:12;3.50;;;3.20;;
12921;SDS011;6528;48.086;16.282;2023-11-19T08:00:39;3.83;;;3.53;;
12921;SDS011;6528;48.086;16.282;2023-11-19T08:03:06;5.13;;;3.23;;
12921;SDS011;6528;48.086;16.282;2023-11-19T08:05:34;4.07;;;3.57;;
12921;SDS011;6528;48.086;16.282;2023-11-19T08:08:01;4.70;;;3.50;;
12921;SDS011;6528;48.086;16.282;2023-11-19T08:10:28;3.13;;;2.57;;
12921;SDS011;6528;48.086;16.282;2023-11-19T08:12:55;3.30;;;3.00;;
12921;SDS011;6528;48.086;16.282;2023-11-19T08:15:22;3.73;;;3.40;;
12921;SDS011;6528;48.086;16.282;2023-11-19T08:17:52;3.10;;;2.90;;
12921;SDS011;6528;48.086;16.282;2023-11-19T08:20:20;3.30;;;2.80;;
12921;SDS011;6528;48.086;16.282;2023-11-19T08:22:47;2.87;;;2.67;;
12921;SDS011;6528;48.086;16.282;2023-11-19T08:25:14;4.00;;;2.80;;
12921;SDS011;6528;48.086;16.282;2023-11-19T08:27:41;3.27;;;3.03;;
12921;SDS011;6528;48.086;16.282;2023-11-19T08:30:09;3.00;;;2.77;;
12921;SDS011;6528;48.086;16.282;2023-11-19T08:32:36;2.63;;;2.43;;
12921;SDS011;6528;48.086;16.282;2023-11-19T08:35:03;2.93;;;2.73;;
12921;SDS011;6528;48.086;16.282;2023-11-19T08:37:32;3.23;;;2.93;;
12921;SDS011;6528;48.086;16.282;2023-11-19T08:39:58;3.13;;;2.83;;
12921;SDS011;6528;48.086;16.282;2023-11-19T08:42:25;4.17;;;2.80;;
12921;SDS011;6528;48.086;16.282;2023-11-19T08:44:52;3.07;;;2.87;;
12921;SDS011;6528;48.086;16.282;2023-11-19T08:47:21;2.70;;;2.50;;
12921;SDS011;6528;48.086;16.282;2023-11-19T08:49:52;3.00;;;2.80;;
12921;SDS011;6528;48.086;16.282;2023-11-19T08:52:22;3.03;;;2.70;;
12921;SDS011;6528;48.086;16.282;2023-11-19T08:54:49;2.90;;;2.70;;
12921;SDS011;6528;48.086;16.282;2023-11-19T08:57:16;2.70;;;2.50;;
12921;SDS011;6528;48.086;16.282;2023-11-19T08:59:43;2.80;;;2.60;;
12921;SDS011;6528;48.086;16.282;2023-11-19T09:02:12;2.70;;;2.60;;
12921;SDS011;6528;48.086;16.282;2023-11-19T09:04:39;2.30;;;2.20;;
12921;SDS011;6528;48.086;16.282;2023-11-19T09:07:07;3.00;;;2.47;;
12921;SDS011;6528;48.086;16.282;2023-11-19T09:09:37;2.43;;;2.23;;
12921;SDS011;6528;48.086;16.282;2023-11-19T09:12:04;2.70;;;2.50;;
12921;SDS011;6528;48.086;16.282;2023-11-19T09:14:32;2.50;;;2.30;;
12921;SDS011;6528;48.086;16.282;2023-11-19T09:16:59;2.33;;;2.23;;
12921;SDS011;6528;48.086;16.282;2023-11-19T09:19:26;2.20;;;2.00;;
12921;SDS011;6528;48.086;16.282;2023-11-19T09:21:53;2.33;;;2.10;;
12921;SDS011;6528;48.086;16.282;2023-11-19T09:24:21;3.10;;;2.40;;
12921;SDS011;6528;48.086;16.282;2023-11-19T09:26:48;2.33;;;2.17;;
12921;SDS011;6528;48.086;16.282;2023-11-19T09:29:15;2.00;;;1.90;;
12921;SDS011;6528;48.086;16.282;2023-11-19T09:31:43;2.07;;;1.97;;
12921;SDS011;6528;48.086;16.282;2023-11-19T09:34:10;2.50;;;2.30;;
12921;SDS011;6528;48.086;16.282;2023-11-19T09:36:37;2.30;;;2.10;;
12921;SDS011;6528;48.086;16.282;2023-11-19T09:39:04;2.13;;;2.03;;
12921;SDS011;6528;48.086;16.282;2023-11-19T09:41:31;1.90;;;1.80;;
12921;SDS011;6528;48.086;16.282;2023-11-19T09:43:59;2.27;;;2.13;;
12921;SDS011;6528;48.086;16.282;2023-11-19T09:46:26;1.87;;;1.70;;
12921;SDS011;6528;48.086;16.282;2023-11-19T09:48:53;1.80;;;1.70;;
12921;SDS011;6528;48.086;16.282;2023-11-19T09:51:21;2.10;;;2.00;;
12921;SDS011;6528;48.086;16.282;2023-11-19T09:53:49;2.00;;;1.90;;
12921;SDS011;6528;48.086;16.282;2023-11-19T09:56:16;2.43;;;2.23;;
12921;SDS011;6528;48.086;16.282;2023-11-19T09:58:44;2.10;;;2.00;;
12921;SDS011;6528;48.086;16.282;2023-11-19T10:01:11;2.10;;;1.97;;
12921;SDS011;6528;48.086;16.282;2023-11-19T10:03:41;1.80;;;1.70;;
12921;SDS011;6528;48.086;16.282;2023-11-19T10:06:10;2.37;;;2.27;;
12921;SDS011;6528;48.086;16.282;2023-11-19T10:08:37;2.13;;;2.03;;
12921;SDS011;6528;48.086;16.282;2023-11-19T10:11:08;2.10;;;2.00;;
12921;SDS011;6528;48.086;16.282;2023-11-19T10:13:38;1.90;;;1.80;;
12921;SDS011;6528;48.086;16.282;2023-11-19T10:16:09;1.80;;;1.70;;
12921;SDS011;6528;48.086;16.282;2023-11-19T10:18:48;1.60;;;1.50;;
12921;SDS011;6528;48.086;16.282;2023-11-19T10:21:19;2.50;;;2.33;;
12921;SDS011;6528;48.086;16.282;2023-11-19T10:23:50;2.43;;;2.23;;
12921;SDS011;6528;48.086;16.282;2023-11-19T10:26:23;3.40;;;2.00;;
12921;SDS011;6528;48.086;16.282;2023-11-19T10:28:50;3.03;;;2.03;;
12921;SDS011;6528;48.086;16.282;2023-11-19T10:31:18;2.57;;;2.10;;
12921;SDS011;6528;48.086;16.282;2023-11-19T10:33:51;2.37;;;2.10;;
12921;SDS011;6528;48.086;16.282;2023-11-19T10:36:19;2.30;;;2.10;;
12921;SDS011;6528;48.086;16.282;2023-11-19T10:38:56;2.23;;;2.13;;
12921;SDS011;6528;48.086;16.282;2023-11-19T10:41:27;2.37;;;2.17;;
12921;SDS011;6528;48.086;16.282;2023-11-19T10:43:58;2.63;;;2.50;;
12921;SDS011;6528;48.086;16.282;2023-11-19T10:46:39;2.80;;;2.60;;
12921;SDS011;6528;48.086;16.282;2023-11-19T10:49:07;2.53;;;2.10;;
12921;SDS011;6528;48.086;16.282;2023-11-19T10:51:35;3.60;;;3.00;;
12921;SDS011;6528;48.086;16.282;2023-11-19T10:54:03;3.23;;;2.93;;
12921;SDS011;6528;48.086;16.282;2023-11-19T10:56:33;3.00;;;2.80;;
12921;SDS011;6528;48.086;16.282;2023-11-19T10:59:00;4.70;;;3.03;;
12921;SDS011;6528;48.086;16.282;2023-11-19T11:01:47;3.70;;;3.40;;
12921;SDS011;6528;48.086;16.282;2023-11-19T11:04:19;3.40;;;3.03;;
12921;SDS011;6528;48.086;16.282;2023-11-19T11:06:51;2.30;;;2.20;;
12921;SDS011;6528;48.086;16.282;2023-11-19T11:09:20;3.13;;;2.93;;
12921;SDS011;6528;48.086;16.282;2023-11-19T11:11:47;2.50;;;1.93;;
12921;SDS011;6528;48.086;16.282;2023-11-19T11:14:16;3.20;;;2.90;;
12921;SDS011;6528;48.086;16.282;2023-11-19T11:16:46;3.07;;;2.47;;
12921;SDS011;6528;48.086;16.282;2023-11-19T11:19:16;2.70;;;2.50;;
12921;SDS011;6528;48.086;16.282;2023-11-19T11:21:47;3.03;;;2.83;;
12921;SDS011;6528;48.086;16.282;2023-11-19T11:29:47;2.70;;;2.50;;
12921;SDS011;6528;48.086;16.282;2023-11-19T11:32:44;2.50;;;2.30;;
12921;SDS011;6528;48.086;16.282;2023-11-19T11:35:28;3.07;;;2.30;;
12921;SDS011;6528;48.086;16.282;2023-11-19T11:38:10;2.80;;;2.10;;
12921;SDS011;6528;48.086;16.282;2023-11-19T11:40:37;3.07;;;2.47;;
12921;SDS011;6528;48.086;16.282;2023-11-19T11:43:04;2.30;;;2.20;;
12921;SDS011;6528;48.086;16.282;2023-11-19T11:49:16;3.67;;;2.50;;
12921;SDS011;6528;48.086;16.282;2023-11-19T11:51:59;3.17;;;2.40;;
12921;SDS011;6528;48.086;16.282;2023-11-19T11:54:28;2.83;;;2.63;;
12921;SDS011;6528;48.086;16.282;2023-11-19T11:57:06;2.03;;;1.90;;
12921;SDS011;6528;48.086;16.282;2023-11-19T12:02:13;2.97;;;2.67;;
12921;SDS011;6528;48.086;16.282;2023-11-19T12:04:43;2.70;;;2.50;;
12921;SDS011;6528;48.086;16.282;2023-11-19T12:07:16;2.50;;;2.30;;
12921;SDS011;6528;48.086;16.282;2023-11-19T12:09:53;2.50;;;2.30;;
12921;SDS011;6528;48.086;16.282;2023-11-19T12:12:34;2.50;;;2.30;;
12921;SDS011;6528;48.086;16.282;2023-11-19T12:15:06;2.50;;;2.13;;
12921;SDS011;6528;48.086;16.282;2023-11-19T12:17:47;2.77;;;2.57;;
12921;SDS011;6528;48.086;16.282;2023-11-19T12:20:17;2.00;;;1.90;;
12921;SDS011;6528;48.086;16.282;2023-11-19T12:22:48;2.03;;;1.93;;
12921;SDS011;6528;48.086;16.282;2023-11-19T12:25:17;2.03;;;1.93;;
12921;SDS011;6528;48.086;16.282;2023-11-19T12:27:47;2.07;;;1.93;;
12921;SDS011;6528;48.086;16.282;2023-11-19T12:32:50;2.87;;;2.60;;
12921;SDS011;6528;48.086;16.282;2023-11-19T12:35:20;2.20;;;2.10;;
12921;SDS011;6528;48.086;16.282;2023-11-19T12:37:48;2.80;;;2.60;;
12921;SDS011;6528;48.086;16.282;2023-11-19T12:40:18;2.30;;;2.20;;
12921;SDS011;6528;48.086;16.282;2023-11-19T12:42:46;2.13;;;1.93;;
12921;SDS011;6528;48.086;16.282;2023-11-19T12:45:15;2.13;;;2.03;;
12921;SDS011;6528;48.086;16.282;2023-11-19T12:47:43;2.70;;;2.23;;
12921;SDS011;6528;48.086;16.282;2023-11-19T12:50:11;2.43;;;2.20;;
12921;SDS011;6528;48.086;16.282;2023-11-19T12:52:38;2.53;;;2.33;;
12921;SDS011;6528;48.086;16.282;2023-11-19T12:55:28;2.50;;;2.30;;
12921;SDS011;6528;48.086;16.282;2023-11-19T12:57:56;2.10;;;2.00;;
12921;SDS011;6528;48.086;16.282;2023-11-19T13:00:25;2.30;;;2.20;;
12921;SDS011;6528;48.086;16.282;2023-11-19T13:02:55;2.70;;;2.50;;
12921;SDS011;6528;48.086;16.282;2023-11-19T13:05:27;2.10;;;2.00;;
12921;SDS011;6528;48.086;16.282;2023-11-19T13:08:04;2.03;;;1.93;;
12921;SDS011;6528;48.086;16.282;2023-11-19T13:10:50;2.87;;;2.30;;
12921;SDS011;6528;48.086;16.282;2023-11-19T13:13:19;2.47;;;2.30;;
12921;SDS011;6528;48.086;16.282;2023-11-19T13:15:46;2.47;;;2.00;;
12921;SDS011;6528;48.086;16.282;2023-11-19T13:18:16;2.90;;;2.47;;
12921;SDS011;6528;48.086;16.282;2023-11-19T13:20:43;3.10;;;2.47;;
12921;SDS011;6528;48.086;16.282;2023-11-19T13:23:10;2.07;;;1.97;;
12921;SDS011;6528;48.086;16.282;2023-11-19T13:25:38;2.33;;;2.23;;
12921;SDS011;6528;48.086;16.282;2023-11-19T13:28:05;2.60;;;2.40;;
12921;SDS011;6528;48.086;16.282;2023-11-19T13:30:32;2.53;;;2.33;;
12921;SDS011;6528;48.086;16.282;2023-11-19T13:32:59;2.40;;;2.20;;
12921;SDS011;6528;48.086;16.282;2023-11-19T13:35:27;2.17;;;2.07;;
12921;SDS011;6528;48.086;16.282;2023-11-19T13:37:55;2.17;;;2.07;;
12921;SDS011;6528;48.086;16.282;2023-11-19T13:40:22;2.17;;;2.07;;
12921;SDS011;6528;48.086;16.282;2023-11-19T13:42:51;2.10;;;2.00;;
12921;SDS011;6528;48.086;16.282;2023-11-19T13:45:19;2.50;;;2.30;;
12921;SDS011;6528;48.086;16.282;2023-11-19T13:47:47;2.23;;;2.13;;
12921;SDS011;6528;48.086;16.282;2023-11-19T13:50:15;2.43;;;2.23;;
12921;SDS011;6528;48.086;16.282;2023-11-19T13:52:46;2.60;;;2.40;;
12921;SDS011;6528;48.086;16.282;2023-11-19T13:55:14;2.37;;;2.20;;
12921;SDS011;6528;48.086;16.282;2023-11-19T13:57:42;1.73;;;1.63;;
12921;SDS011;6528;48.086;16.282;2023-11-19T14:00:11;2.20;;;2.00;;
12921;SDS011;6528;48.086;16.282;2023-11-19T14:02:46;2.10;;;2.00;;
12921;SDS011;6528;48.086;16.282;2023-11-19T14:05:16;2.20;;;2.00;;
12921;SDS011;6528;48.086;16.282;2023-11-19T14:08:03;1.83;;;1.73;;
12921;SDS011;6528;48.086;16.282;2023-11-19T14:10:50;2.03;;;1.93;;
12921;SDS011;6528;48.086;16.282;2023-11-19T14:13:18;2.53;;;2.33;;
12921;SDS011;6528;48.086;16.282;2023-11-19T14:15:45;2.00;;;1.90;;
12921;SDS011;6528;48.086;16.282;2023-11-19T14:18:15;2.47;;;2.27;;
12921;SDS011;6528;48.086;16.282;2023-11-19T14:20:43;2.60;;;2.40;;
12921;SDS011;6528;48.086;16.282;2023-11-19T14:23:10;2.00;;;1.90;;
12921;SDS011;6528;48.086;16.282;2023-11-19T14:25:37;2.30;;;2.10;;
12921;SDS011;6528;48.086;16.282;2023-11-19T14:28:04;2.00;;;1.90;;
12921;SDS011;6528;48.086;16.282;2023-11-19T14:30:32;2.00;;;1.80;;
12921;SDS011;6528;48.086;16.282;2023-11-19T14:33:01;2.77;;;2.57;;
12921;SDS011;6528;48.086;16.282;2023-11-19T14:35:29;2.37;;;2.17;;
12921;SDS011;6528;48.086;16.282;2023-11-19T14:37:57;2.80;;;2.00;;
12921;SDS011;6528;48.086;16.282;2023-11-19T14:40:24;2.60;;;2.40;;
12921;SDS011;6528;48.086;16.282;2023-11-19T14:42:53;3.10;;;2.40;;
12921;SDS011;6528;48.086;16.282;2023-11-19T14:45:21;2.27;;;2.10;;
12921;SDS011;6528;48.086;16.282;2023-11-19T14:47:48;2.37;;;2.17;;
12921;SDS011;6528;48.086;16.282;2023-11-19T14:50:16;2.20;;;2.10;;
12921;SDS011;6528;48.086;16.282;2023-11-19T14:52:43;2.00;;;1.90;;
12921;SDS011;6528;48.086;16.282;2023-11-19T14:55:10;2.50;;;2.30;;
12921;SDS011;6528;48.086;16.282;2023-11-19T14:57:38;3.20;;;2.40;;
12921;SDS011;6528;48.086;16.282;2023-11-19T15:00:06;2.00;;;1.90;;
12921;SDS011;6528;48.086;16.282;2023-11-19T15:02:40;2.43;;;2.23;;
12921;SDS011;6528;48.086;16.282;2023-11-19T15:05:08;2.27;;;2.17;;
12921;SDS011;6528;48.086;16.282;2023-11-19T15:07:39;1.77;;;1.67;;
12921;SDS011;6528;48.086;16.282;2023-11-19T15:10:06;2.50;;;2.30;;
12921;SDS011;6528;48.086;16.282;2023-11-19T15:12:37;2.63;;;2.43;;